sensor_id;sensor_type;location;lat;lon;timestamp;pressure;altitude;pressure_sealevel;temperature;humidity
65760;BME280;52496;51.082;5.066;2024-01-30T00:01:31;102558.38;;;6.20;100.00
65760;BME280;52496;51.082;5.066;2024-01-30T00:04:02;102556.56;;;6.20;100.00
65760;BME280;52496;51.082;5.066;2024-01-30T00:06:33;102553.06;;;6.20;100.00
65760;BME280;52496;51.082;5.066;2024-01-30T00:09:03;102552.81;;;6.23;100.00
65760;BME280;52496;51.082;5.066;2024-01-30T00:11:35;102553.56;;;6.25;100.00
65760;BME280;52496;51.082;5.066;2024-01-30T00:14:06;102552.50;;;6.28;100.00
65760;BME280;52496;51.082;5.066;2024-01-30T00:16:36;102552.38;;;6.29;100.00
65760;BME280;52496;51.082;5.066;2024-01-30T00:19:07;102545.13;;;6.31;100.00
65760;BME280;52496;51.082;5.066;2024-01-30T00:21:38;102542.34;;;6.33;100.00
65760;BME280;52496;51.082;5.066;2024-01-30T00:24:09;102535.97;;;6.35;100.00
65760;BME280;52496;51.082;5.066;2024-01-30T00:26:39;102544.44;;;6.40;100.00
65760;BME280;52496;51.082;5.066;2024-01-30T00:29:10;102544.31;;;6.42;100.00
65760;BME280;52496;51.082;5.066;2024-01-30T00:31:41;102534.31;;;6.46;100.00
65760;BME280;52496;51.082;5.066;2024-01-30T00:34:11;102536.75;;;6.49;100.00
65760;BME280;52496;51.082;5.066;2024-01-30T00:36:42;102534.94;;;6.49;100.00
65760;BME280;52496;51.082;5.066;2024-01-30T00:39:12;102539.19;;;6.52;100.00
65760;BME280;52496;51.082;5.066;2024-01-30T00:41:45;102539.19;;;6.52;100.00
65760;BME280;52496;51.082;5.066;2024-01-30T00:44:16;102532.88;;;6.53;100.00
65760;BME280;52496;51.082;5.066;2024-01-30T00:46:46;102532.66;;;6.56;100.00
65760;BME280;52496;51.082;5.066;2024-01-30T00:49:17;102533.50;;;6.56;100.00
65760;BME280;52496;51.082;5.066;2024-01-30T00:51:47;102533.50;;;6.56;100.00
65760;BME280;52496;51.082;5.066;2024-01-30T00:54:18;102529.91;;;6.57;100.00
65760;BME280;52496;51.082;5.066;2024-01-30T00:56:48;102541.38;;;6.58;100.00
65760;BME280;52496;51.082;5.066;2024-01-30T00:59:19;102528.91;;;6.58;100.00
65760;BME280;52496;51.082;5.066;2024-01-30T01:01:49;102528.69;;;6.61;100.00
65760;BME280;52496;51.082;5.066;2024-01-30T01:04:20;102526.88;;;6.62;100.00
65760;BME280;52496;51.082;5.066;2024-01-30T01:06:51;102511.91;;;6.61;100.00
65760;BME280;52496;51.082;5.066;2024-01-30T01:09:22;102514.41;;;6.62;100.00
65760;BME280;52496;51.082;5.066;2024-01-30T01:11:52;102504.75;;;6.61;100.00
65760;BME280;52496;51.082;5.066;2024-01-30T01:14:23;102507.94;;;6.66;100.00
65760;BME280;52496;51.082;5.066;2024-01-30T01:16:53;102507.69;;;6.70;100.00
65760;BME280;52496;51.082;5.066;2024-01-30T01:19:24;102508.53;;;6.70;100.00
65760;BME280;52496;51.082;5.066;2024-01-30T01:21:54;102507.69;;;6.70;100.00
65760;BME280;52496;51.082;5.066;2024-01-30T01:24:25;102513.84;;;6.70;100.00
65760;BME280;52496;51.082;5.066;2024-01-30T01:26:55;102507.78;;;6.68;100.00
65760;BME280;52496;51.082;5.066;2024-01-30T01:29:27;102514.09;;;6.67;100.00
65760;BME280;52496;51.082;5.066;2024-01-30T01:32:00;102508.75;;;6.67;100.00
65760;BME280;52496;51.082;5.066;2024-01-30T01:34:31;102510.69;;;6.65;100.00
65760;BME280;52496;51.082;5.066;2024-01-30T01:37:02;102511.66;;;6.64;100.00
65760;BME280;52496;51.082;5.066;2024-01-30T01:39:32;102508.03;;;6.65;100.00
65760;BME280;52496;51.082;5.066;2024-01-30T01:42:03;102508.03;;;6.65;100.00
65760;BME280;52496;51.082;5.066;2024-01-30T01:44:34;102509.00;;;6.64;100.00
65760;BME280;52496;51.082;5.066;2024-01-30T01:47:04;102501.97;;;6.63;100.00
65760;BME280;52496;51.082;5.066;2024-01-30T01:49:35;102497.63;;;6.62;100.00
65760;BME280;52496;51.082;5.066;2024-01-30T01:52:06;102494.13;;;6.61;100.00
65760;BME280;52496;51.082;5.066;2024-01-30T01:54:36;102488.81;;;6.61;100.00
65760;BME280;52496;51.082;5.066;2024-01-30T01:57:07;102491.34;;;6.63;100.00
65760;BME280;52496;51.082;5.066;2024-01-30T01:59:38;102488.56;;;6.64;100.00
65760;BME280;52496;51.082;5.066;2024-01-30T02:02:09;102490.16;;;6.67;100.00
65760;BME280;52496;51.082;5.066;2024-01-30T02:04:42;102487.88;;;6.74;100.00
65760;BME280;52496;51.082;5.066;2024-01-30T02:07:12;102486.78;;;6.76;100.00
65760;BME280;52496;51.082;5.066;2024-01-30T02:09:43;102491.88;;;6.79;100.00
65760;BME280;52496;51.082;5.066;2024-01-30T02:12:14;102485.56;;;6.80;100.00
65760;BME280;52496;51.082;5.066;2024-01-30T02:14:45;102492.47;;;6.83;100.00
65760;BME280;52496;51.082;5.066;2024-01-30T02:17:16;102484.72;;;6.80;100.00
65760;BME280;52496;51.082;5.066;2024-01-30T02:19:46;102480.16;;;6.82;100.00
65760;BME280;52496;51.082;5.066;2024-01-30T02:22:17;102486.53;;;6.79;100.00
65760;BME280;52496;51.082;5.066;2024-01-30T02:24:49;102484.00;;;6.78;100.00
65760;BME280;52496;51.082;5.066;2024-01-30T02:27:20;102485.94;;;6.76;100.00
65760;BME280;52496;51.082;5.066;2024-01-30T02:29:50;102487.03;;;6.73;100.00
65760;BME280;52496;51.082;5.066;2024-01-30T02:32:21;102480.13;;;6.71;100.00
65760;BME280;52496;51.082;5.066;2024-01-30T02:34:52;102482.88;;;6.69;100.00
65760;BME280;52496;51.082;5.066;2024-01-30T02:37:22;102489.19;;;6.68;100.00
65760;BME280;52496;51.082;5.066;2024-01-30T02:39:52;102485.78;;;6.66;100.00
65760;BME280;52496;51.082;5.066;2024-01-30T02:42:23;102478.03;;;6.63;100.00
65760;BME280;52496;51.082;5.066;2024-01-30T02:44:53;102480.09;;;6.59;100.00
65760;BME280;52496;51.082;5.066;2024-01-30T02:47:25;102486.50;;;6.57;100.00
65760;BME280;52496;51.082;5.066;2024-01-30T02:49:55;102475.25;;;6.53;100.00
65760;BME280;52496;51.082;5.066;2024-01-30T02:52:26;102480.94;;;6.49;100.00
65760;BME280;52496;51.082;5.066;2024-01-30T02:54:56;102481.03;;;6.47;100.00
65760;BME280;52496;51.082;5.066;2024-01-30T02:57:27;102476.81;;;6.44;100.00
65760;BME280;52496;51.082;5.066;2024-01-30T02:59:57;102473.19;;;6.46;100.00
65760;BME280;52496;51.082;5.066;2024-01-30T03:02:27;102483.84;;;6.46;100.00
65760;BME280;52496;51.082;5.066;2024-01-30T03:04:59;102476.81;;;6.44;100.00
65760;BME280;52496;51.082;5.066;2024-01-30T03:07:29;102481.41;;;6.42;100.00
65760;BME280;52496;51.082;5.066;2024-01-30T03:10:00;102475.34;;;6.40;100.00
65760;BME280;52496;51.082;5.066;2024-01-30T03:12:31;102467.47;;;6.39;100.00
65760;BME280;52496;51.082;5.066;2024-01-30T03:15:01;102477.03;;;6.41;100.00
65760;BME280;52496;51.082;5.066;2024-01-30T03:17:32;102475.13;;;6.43;100.00
65760;BME280;52496;51.082;5.066;2024-01-30T03:20:03;102475.00;;;6.45;100.00
65760;BME280;52496;51.082;5.066;2024-01-30T03:22:34;102470.31;;;6.49;100.00
65760;BME280;52496;51.082;5.066;2024-01-30T03:25:04;102467.66;;;6.49;100.00
65760;BME280;52496;51.082;5.066;2024-01-30T03:27:36;102472.59;;;6.53;100.00
65760;BME280;52496;51.082;5.066;2024-01-30T03:30:07;102458.22;;;6.56;100.00
65760;BME280;52496;51.082;5.066;2024-01-30T03:32:38;102464.38;;;6.56;100.00
65760;BME280;52496;51.082;5.066;2024-01-30T03:35:09;102459.66;;;6.60;100.00
65760;BME280;52496;51.082;5.066;2024-01-30T03:37:39;102467.53;;;6.61;100.00
65760;BME280;52496;51.082;5.066;2024-01-30T03:40:10;102470.06;;;6.63;100.00
65760;BME280;52496;51.082;5.066;2024-01-30T03:42:41;102473.47;;;6.65;100.00
65760;BME280;52496;51.082;5.066;2024-01-30T03:45:11;102470.72;;;6.66;100.00
65760;BME280;52496;51.082;5.066;2024-01-30T03:47:43;102472.16;;;6.71;100.00
65760;BME280;52496;51.082;5.066;2024-01-30T03:50:14;102475.66;;;6.71;100.00
65760;BME280;52496;51.082;5.066;2024-01-30T03:52:44;102476.38;;;6.73;100.00
65760;BME280;52496;51.082;5.066;2024-01-30T03:55:14;102469.34;;;6.72;100.00
65760;BME280;52496;51.082;5.066;2024-01-30T03:57:45;102471.06;;;6.73;100.00
65760;BME280;52496;51.082;5.066;2024-01-30T04:00:15;102471.06;;;6.73;100.00
65760;BME280;52496;51.082;5.066;2024-01-30T04:02:46;102465.75;;;6.73;100.00
65760;BME280;52496;51.082;5.066;2024-01-30T04:05:17;102473.72;;;6.73;100.00
65760;BME280;52496;51.082;5.066;2024-01-30T04:07:47;102473.72;;;6.73;100.00
65760;BME280;52496;51.082;5.066;2024-01-30T04:10:17;102470.34;;;6.71;100.00
65760;BME280;52496;51.082;5.066;2024-01-30T04:12:48;102466.00;;;6.70;100.00
65760;BME280;52496;51.082;5.066;2024-01-30T04:15:18;102469.72;;;6.68;100.00
65760;BME280;52496;51.082;5.066;2024-01-30T04:17:49;102469.13;;;6.64;100.00
65760;BME280;52496;51.082;5.066;2024-01-30T04:20:19;102457.75;;;6.62;100.00
65760;BME280;52496;51.082;5.066;2024-01-30T04:22:50;102454.34;;;6.60;100.00
65760;BME280;52496;51.082;5.066;2024-01-30T04:25:20;102459.66;;;6.60;100.00
65760;BME280;52496;51.082;5.066;2024-01-30T04:27:51;102459.44;;;6.63;100.00
65760;BME280;52496;51.082;5.066;2024-01-30T04:30:21;102457.66;;;6.63;100.00
65760;BME280;52496;51.082;5.066;2024-01-30T04:32:52;102454.25;;;6.61;100.00
65760;BME280;52496;51.082;5.066;2024-01-30T04:35:22;102448.81;;;6.63;100.00
65760;BME280;52496;51.082;5.066;2024-01-30T04:37:55;102448.81;;;6.63;100.00
65760;BME280;52496;51.082;5.066;2024-01-30T04:40:25;102440.13;;;6.61;100.00
65760;BME280;52496;51.082;5.066;2024-01-30T04:42:56;102449.03;;;6.60;100.00
65760;BME280;52496;51.082;5.066;2024-01-30T04:45:26;102444.69;;;6.59;100.00
65760;BME280;52496;51.082;5.066;2024-01-30T04:47:56;102442.03;;;6.59;100.00
65760;BME280;52496;51.082;5.066;2024-01-30T04:50:27;102449.91;;;6.60;100.00
65760;BME280;52496;51.082;5.066;2024-01-30T04:52:57;102439.03;;;6.63;100.00
65760;BME280;52496;51.082;5.066;2024-01-30T04:55:28;102449.44;;;6.66;100.00
65760;BME280;52496;51.082;5.066;2024-01-30T04:57:58;102448.09;;;6.72;100.00
65760;BME280;52496;51.082;5.066;2024-01-30T05:00:29;102451.47;;;6.74;100.00
65760;BME280;52496;51.082;5.066;2024-01-30T05:02:59;102458.38;;;6.77;100.00
65760;BME280;52496;51.082;5.066;2024-01-30T05:05:30;102453.78;;;6.79;100.00
65760;BME280;52496;51.082;5.066;2024-01-30T05:08:00;102456.22;;;6.82;100.00
65760;BME280;52496;51.082;5.066;2024-01-30T05:10:31;102443.75;;;6.82;100.00
65760;BME280;52496;51.082;5.066;2024-01-30T05:13:01;102441.81;;;6.84;100.00
65760;BME280;52496;51.082;5.066;2024-01-30T05:15:31;102445.19;;;6.86;100.00
65760;BME280;52496;51.082;5.066;2024-01-30T05:18:02;102443.28;;;6.88;100.00
65760;BME280;52496;51.082;5.066;2024-01-30T05:20:32;102444.72;;;6.93;100.00
65760;BME280;52496;51.082;5.066;2024-01-30T05:23:03;102434.66;;;6.96;100.00
65760;BME280;52496;51.082;5.066;2024-01-30T05:25:33;102444.22;;;6.99;100.00
65760;BME280;52496;51.082;5.066;2024-01-30T05:28:04;102433.34;;;7.02;100.00
65760;BME280;52496;51.082;5.066;2024-01-30T05:30:35;102437.56;;;7.04;100.00
65760;BME280;52496;51.082;5.066;2024-01-30T05:33:05;102437.19;;;7.09;100.00
65760;BME280;52496;51.082;5.066;2024-01-30T05:35:35;102440.47;;;7.12;100.00
65760;BME280;52496;51.082;5.066;2024-01-30T05:38:06;102431.28;;;7.17;100.00
65760;BME280;52496;51.082;5.066;2024-01-30T05:40:36;102434.53;;;7.20;100.00
65760;BME280;52496;51.082;5.066;2024-01-30T05:43:07;102443.00;;;7.25;100.00
65760;BME280;52496;51.082;5.066;2024-01-30T05:45:38;102438.41;;;7.27;100.00
65760;BME280;52496;51.082;5.066;2024-01-30T05:48:08;102427.75;;;7.27;100.00
65760;BME280;52496;51.082;5.066;2024-01-30T05:50:39;102431.13;;;7.29;100.00
65760;BME280;52496;51.082;5.066;2024-01-30T05:53:09;102435.50;;;7.30;100.00
65760;BME280;52496;51.082;5.066;2024-01-30T05:55:40;102431.59;;;7.34;100.00
65760;BME280;52496;51.082;5.066;2024-01-30T05:58:10;102435.72;;;7.39;100.00
65760;BME280;52496;51.082;5.066;2024-01-30T06:00:41;102443.44;;;7.42;100.00
65760;BME280;52496;51.082;5.066;2024-01-30T06:03:11;102449.34;;;7.45;100.00
65760;BME280;52496;51.082;5.066;2024-01-30T06:05:42;102442.94;;;7.48;100.00
65760;BME280;52496;51.082;5.066;2024-01-30T06:08:13;102454.06;;;7.53;100.00
65760;BME280;52496;51.082;5.066;2024-01-30T06:10:43;102449.34;;;7.56;100.00
65760;BME280;52496;51.082;5.066;2024-01-30T06:13:13;102448.00;;;7.62;100.00
65760;BME280;52496;51.082;5.066;2024-01-30T06:15:44;102453.19;;;7.64;100.00
65760;BME280;52496;51.082;5.066;2024-01-30T06:18:15;102451.38;;;7.64;100.00
65760;BME280;52496;51.082;5.066;2024-01-30T06:20:45;102456.47;;;7.67;100.00
65760;BME280;52496;51.082;5.066;2024-01-30T06:23:15;102453.53;;;7.70;100.00
65760;BME280;52496;51.082;5.066;2024-01-30T06:25:46;102454.00;;;7.75;100.00
65760;BME280;52496;51.082;5.066;2024-01-30T06:28:17;102464.97;;;7.82;100.00
65760;BME280;52496;51.082;5.066;2024-01-30T06:30:48;102464.75;;;7.85;100.00
65760;BME280;52496;51.082;5.066;2024-01-30T06:33:18;102456.63;;;7.87;100.00
65760;BME280;52496;51.082;5.066;2024-01-30T06:35:49;102458.06;;;7.91;100.00
65760;BME280;52496;51.082;5.066;2024-01-30T06:38:19;102463.13;;;7.94;100.00
65760;BME280;52496;51.082;5.066;2024-01-30T06:40:50;102464.09;;;7.93;100.00
65760;BME280;52496;51.082;5.066;2024-01-30T06:43:22;102465.78;;;7.94;100.00
65760;BME280;52496;51.082;5.066;2024-01-30T06:45:52;102472.81;;;7.95;100.00
65760;BME280;52496;51.082;5.066;2024-01-30T06:48:23;102479.59;;;7.99;100.00
65760;BME280;52496;51.082;5.066;2024-01-30T06:50:53;102485.38;;;8.04;100.00
65760;BME280;52496;51.082;5.066;2024-01-30T06:53:24;102485.81;;;8.09;100.00
65760;BME280;52496;51.082;5.066;2024-01-30T06:55:56;102477.56;;;8.12;100.00
65760;BME280;52496;51.082;5.066;2024-01-30T06:58:27;102489.69;;;8.16;100.00
65760;BME280;52496;51.082;5.066;2024-01-30T07:00:57;102489.69;;;8.16;100.00
65760;BME280;52496;51.082;5.066;2024-01-30T07:03:28;102482.38;;;8.18;100.00
65760;BME280;52496;51.082;5.066;2024-01-30T07:05:58;102496.44;;;8.20;100.00
65760;BME280;52496;51.082;5.066;2024-01-30T07:08:29;102497.03;;;8.24;100.00
65760;BME280;52496;51.082;5.066;2024-01-30T07:10:59;102501.50;;;8.23;100.00
65760;BME280;52496;51.082;5.066;2024-01-30T07:13:30;102505.75;;;8.26;100.00
65760;BME280;52496;51.082;5.066;2024-01-30T07:16:00;102512.75;;;8.27;100.00
65760;BME280;52496;51.082;5.066;2024-01-30T07:18:31;102511.56;;;8.31;100.00
65760;BME280;52496;51.082;5.066;2024-01-30T07:21:01;102523.50;;;8.37;100.00
65760;BME280;52496;51.082;5.066;2024-01-30T07:23:32;102516.25;;;8.39;100.00
65760;BME280;52496;51.082;5.066;2024-01-30T07:26:05;102518.81;;;8.40;100.00
65760;BME280;52496;51.082;5.066;2024-01-30T07:28:37;102532.00;;;8.42;100.00
65760;BME280;52496;51.082;5.066;2024-01-30T07:31:07;102534.28;;;8.46;100.00
65760;BME280;52496;51.082;5.066;2024-01-30T07:33:38;102552.56;;;8.51;100.00
65760;BME280;52496;51.082;5.066;2024-01-30T07:36:08;102541.63;;;8.54;100.00
65760;BME280;52496;51.082;5.066;2024-01-30T07:38:39;102532.66;;;8.55;100.00
65760;BME280;52496;51.082;5.066;2024-01-30T07:41:10;102544.88;;;8.58;100.00
65760;BME280;52496;51.082;5.066;2024-01-30T07:43:41;102551.78;;;8.60;100.00
65760;BME280;52496;51.082;5.066;2024-01-30T07:46:11;102549.84;;;8.62;100.00
65760;BME280;52496;51.082;5.066;2024-01-30T07:48:42;102547.16;;;8.62;100.00
65760;BME280;52496;51.082;5.066;2024-01-30T07:51:12;102554.91;;;8.65;100.00
65760;BME280;52496;51.082;5.066;2024-01-30T07:53:43;102565.31;;;8.68;100.00
65760;BME280;52496;51.082;5.066;2024-01-30T07:56:13;102556.34;;;8.69;100.00
65760;BME280;52496;51.082;5.066;2024-01-30T07:58:44;102565.06;;;8.71;100.00
65760;BME280;52496;51.082;5.066;2024-01-30T08:01:16;102568.44;;;8.73;100.00
65760;BME280;52496;51.082;5.066;2024-01-30T08:03:47;102573.53;;;8.77;100.00
65760;BME280;52496;51.082;5.066;2024-01-30T08:06:17;102576.63;;;8.82;100.00
65760;BME280;52496;51.082;5.066;2024-01-30T08:08:48;102577.09;;;8.87;100.00
65760;BME280;52496;51.082;5.066;2024-01-30T08:11:20;102580.06;;;8.93;100.00
65760;BME280;52496;51.082;5.066;2024-01-30T08:13:51;102586.56;;;9.01;100.00
65760;BME280;52496;51.082;5.066;2024-01-30T08:16:21;102579.88;;;9.06;100.00
65760;BME280;52496;51.082;5.066;2024-01-30T08:18:52;102575.00;;;9.11;100.00
65760;BME280;52496;51.082;5.066;2024-01-30T08:21:25;102570.78;;;9.18;100.00
65760;BME280;52496;51.082;5.066;2024-01-30T08:23:56;102576.59;;;9.24;100.00
65760;BME280;52496;51.082;5.066;2024-01-30T08:26:26;102580.41;;;9.31;100.00
65760;BME280;52496;51.082;5.066;2024-01-30T08:28:57;102573.56;;;9.38;100.00
65760;BME280;52496;51.082;5.066;2024-01-30T08:31:28;102574.72;;;9.45;100.00
65760;BME280;52496;51.082;5.066;2024-01-30T08:33:58;102574.75;;;9.55;100.00
65760;BME280;52496;51.082;5.066;2024-01-30T08:36:29;102584.63;;;9.64;100.00
65760;BME280;52496;51.082;5.066;2024-01-30T08:38:59;102576.63;;;9.74;100.00
65760;BME280;52496;51.082;5.066;2024-01-30T08:41:30;102583.84;;;9.83;100.00
65760;BME280;52496;51.082;5.066;2024-01-30T08:44:00;102582.31;;;9.90;100.00
65760;BME280;52496;51.082;5.066;2024-01-30T08:46:31;102585.28;;;9.97;100.00
65760;BME280;52496;51.082;5.066;2024-01-30T08:49:01;102585.56;;;10.03;100.00
65760;BME280;52496;51.082;5.066;2024-01-30T08:51:32;102589.41;;;10.10;100.00
65760;BME280;52496;51.082;5.066;2024-01-30T08:54:02;102599.53;;;10.17;100.00
65760;BME280;52496;51.082;5.066;2024-01-30T08:56:33;102597.16;;;10.23;100.00
65760;BME280;52496;51.082;5.066;2024-01-30T08:59:03;102588.72;;;10.28;100.00
65760;BME280;52496;51.082;5.066;2024-01-30T09:01:34;102590.72;;;10.36;100.00
65760;BME280;52496;51.082;5.066;2024-01-30T09:04:04;102591.97;;;10.41;100.00
65760;BME280;52496;51.082;5.066;2024-01-30T09:06:35;102593.09;;;10.48;100.00
65760;BME280;52496;51.082;5.066;2024-01-30T09:09:05;102593.53;;;10.53;100.00
65760;BME280;52496;51.082;5.066;2024-01-30T09:11:36;102599.44;;;10.57;100.00
65760;BME280;52496;51.082;5.066;2024-01-30T09:14:07;102590.97;;;10.62;100.00
65760;BME280;52496;51.082;5.066;2024-01-30T09:16:37;102587.88;;;10.66;100.00
65760;BME280;52496;51.082;5.066;2024-01-30T09:19:08;102593.22;;;10.76;100.00
65760;BME280;52496;51.082;5.066;2024-01-30T09:21:38;102582.50;;;10.86;100.00
65760;BME280;52496;51.082;5.066;2024-01-30T09:24:09;102587.53;;;10.98;100.00
65760;BME280;52496;51.082;5.066;2024-01-30T09:26:39;102590.06;;;11.10;100.00
65760;BME280;52496;51.082;5.066;2024-01-30T09:29:10;102599.88;;;11.19;100.00
65760;BME280;52496;51.082;5.066;2024-01-30T09:31:45;102599.31;;;11.25;100.00
65760;BME280;52496;51.082;5.066;2024-01-30T09:34:16;102594.19;;;11.32;100.00
65760;BME280;52496;51.082;5.066;2024-01-30T09:36:46;102611.53;;;11.37;100.00
65760;BME280;52496;51.082;5.066;2024-01-30T09:39:17;102612.94;;;11.41;100.00
65760;BME280;52496;51.082;5.066;2024-01-30T09:42:02;102610.50;;;11.48;100.00
65760;BME280;52496;51.082;5.066;2024-01-30T09:44:35;102596.66;;;11.53;100.00
65760;BME280;52496;51.082;5.066;2024-01-30T09:47:08;102600.59;;;11.58;100.00
65760;BME280;52496;51.082;5.066;2024-01-30T09:49:38;102604.66;;;11.62;100.00
65760;BME280;52496;51.082;5.066;2024-01-30T09:52:09;102604.22;;;11.67;100.00
65760;BME280;52496;51.082;5.066;2024-01-30T09:54:40;102605.91;;;11.68;100.00
65760;BME280;52496;51.082;5.066;2024-01-30T09:57:11;102606.59;;;11.70;100.00
65760;BME280;52496;51.082;5.066;2024-01-30T09:59:42;102609.00;;;11.73;100.00
65760;BME280;52496;51.082;5.066;2024-01-30T10:02:14;102615.91;;;11.76;100.00
65760;BME280;52496;51.082;5.066;2024-01-30T10:04:49;102612.06;;;11.78;100.00
65760;BME280;52496;51.082;5.066;2024-01-30T10:07:20;102615.44;;;11.80;100.00
65760;BME280;52496;51.082;5.066;2024-01-30T10:09:51;102617.13;;;11.81;100.00
65760;BME280;52496;51.082;5.066;2024-01-30T10:12:21;102619.94;;;11.80;100.00
65760;BME280;52496;51.082;5.066;2024-01-30T10:14:52;102626.31;;;11.79;100.00
65760;BME280;52496;51.082;5.066;2024-01-30T10:17:25;102625.19;;;11.81;100.00
65760;BME280;52496;51.082;5.066;2024-01-30T10:19:55;102633.78;;;11.85;100.00
65760;BME280;52496;51.082;5.066;2024-01-30T10:22:26;102639.00;;;11.86;100.00
65760;BME280;52496;51.082;5.066;2024-01-30T10:24:56;102631.34;;;11.91;100.00
65760;BME280;52496;51.082;5.066;2024-01-30T10:27:27;102637.56;;;11.92;100.00
65760;BME280;52496;51.082;5.066;2024-01-30T10:29:59;102647.31;;;11.93;100.00
65760;BME280;52496;51.082;5.066;2024-01-30T10:32:30;102641.06;;;11.92;100.00
65760;BME280;52496;51.082;5.066;2024-01-30T10:35:00;102644.75;;;11.91;100.00
65760;BME280;52496;51.082;5.066;2024-01-30T10:37:31;102645.75;;;11.90;100.00
65760;BME280;52496;51.082;5.066;2024-01-30T10:40:03;102644.75;;;11.91;100.00
65760;BME280;52496;51.082;5.066;2024-01-30T10:42:36;102648.81;;;11.96;100.00
65760;BME280;52496;51.082;5.066;2024-01-30T10:45:09;102647.56;;;12.00;100.00
65760;BME280;52496;51.082;5.066;2024-01-30T10:47:43;102653.16;;;12.06;100.00
65760;BME280;52496;51.082;5.066;2024-01-30T10:50:14;102662.44;;;12.12;100.00
65760;BME280;52496;51.082;5.066;2024-01-30T10:52:45;102669.34;;;12.14;100.00
65760;BME280;52496;51.082;5.066;2024-01-30T10:55:18;102663.81;;;12.16;100.00
65760;BME280;52496;51.082;5.066;2024-01-30T10:57:48;102663.81;;;12.16;100.00
65760;BME280;52496;51.082;5.066;2024-01-30T11:00:19;102664.22;;;12.21;100.00
65760;BME280;52496;51.082;5.066;2024-01-30T11:02:54;102661.78;;;12.28;100.00
65760;BME280;52496;51.082;5.066;2024-01-30T11:05:25;102658.91;;;12.29;100.00
65760;BME280;52496;51.082;5.066;2024-01-30T11:07:58;102665.28;;;12.28;100.00
65760;BME280;52496;51.082;5.066;2024-01-30T11:10:28;102664.59;;;12.26;100.00
65760;BME280;52496;51.082;5.066;2024-01-30T11:12:59;102666.59;;;12.24;100.00
65760;BME280;52496;51.082;5.066;2024-01-30T11:15:40;102671.13;;;12.24;100.00
65760;BME280;52496;51.082;5.066;2024-01-30T11:18:10;102664.88;;;12.23;100.00
65760;BME280;52496;51.082;5.066;2024-01-30T11:20:46;102658.69;;;12.23;100.00
65760;BME280;52496;51.082;5.066;2024-01-30T11:23:17;102659.53;;;12.23;100.00
65760;BME280;52496;51.082;5.066;2024-01-30T11:25:47;102667.75;;;12.22;100.00
65760;BME280;52496;51.082;5.066;2024-01-30T11:28:18;102657.31;;;12.19;100.00
65760;BME280;52496;51.082;5.066;2024-01-30T11:30:49;102654.94;;;12.15;100.00
65760;BME280;52496;51.082;5.066;2024-01-30T11:33:29;102654.41;;;12.12;100.00
65760;BME280;52496;51.082;5.066;2024-01-30T11:36:04;102660.06;;;12.09;100.00
65760;BME280;52496;51.082;5.066;2024-01-30T11:38:37;102661.34;;;12.05;100.00
65760;BME280;52496;51.082;5.066;2024-01-30T11:41:08;102656.28;;;12.02;100.00
65760;BME280;52496;51.082;5.066;2024-01-30T11:43:39;102657.44;;;11.99;100.00
65760;BME280;52496;51.082;5.066;2024-01-30T11:46:09;102653.88;;;11.99;100.00
65760;BME280;52496;51.082;5.066;2024-01-30T11:48:40;102655.72;;;11.98;100.00
65760;BME280;52496;51.082;5.066;2024-01-30T11:51:12;102653.75;;;12.00;100.00
65760;BME280;52496;51.082;5.066;2024-01-30T11:53:43;102663.34;;;12.03;100.00
65760;BME280;52496;51.082;5.066;2024-01-30T11:56:14;102654.81;;;12.07;100.00
65760;BME280;52496;51.082;5.066;2024-01-30T11:58:44;102653.28;;;12.05;100.00
65760;BME280;52496;51.082;5.066;2024-01-30T12:01:17;102658.81;;;12.03;100.00
65760;BME280;52496;51.082;5.066;2024-01-30T12:03:50;102658.28;;;12.00;100.00
65760;BME280;52496;51.082;5.066;2024-01-30T12:06:21;102667.28;;;11.99;100.00
65760;BME280;52496;51.082;5.066;2024-01-30T12:09:10;102673.81;;;11.96;100.00
65760;BME280;52496;51.082;5.066;2024-01-30T12:14:16;102682.59;;;11.88;100.00
65760;BME280;52496;51.082;5.066;2024-01-30T12:16:50;102688.97;;;11.87;100.00
65760;BME280;52496;51.082;5.066;2024-01-30T12:19:24;102689.94;;;11.86;100.00
65760;BME280;52496;51.082;5.066;2024-01-30T12:21:58;102687.25;;;11.86;100.00
65760;BME280;52496;51.082;5.066;2024-01-30T12:24:29;102701.38;;;11.88;100.00
65760;BME280;52496;51.082;5.066;2024-01-30T12:27:02;102693.31;;;11.88;100.00
65760;BME280;52496;51.082;5.066;2024-01-30T12:29:33;102694.28;;;11.97;100.00
65760;BME280;52496;51.082;5.066;2024-01-30T12:32:04;102702.63;;;11.94;100.00
65760;BME280;52496;51.082;5.066;2024-01-30T12:34:40;102701.59;;;11.95;100.00
65760;BME280;52496;51.082;5.066;2024-01-30T12:37:12;102702.16;;;11.99;100.00
65760;BME280;52496;51.082;5.066;2024-01-30T12:39:42;102709.06;;;12.01;100.00
65760;BME280;52496;51.082;5.066;2024-01-30T12:42:13;102710.47;;;12.05;100.00
65760;BME280;52496;51.082;5.066;2024-01-30T12:44:44;102723.38;;;12.20;100.00
65760;BME280;52496;51.082;5.066;2024-01-30T12:47:14;102726.41;;;12.34;100.00
65760;BME280;52496;51.082;5.066;2024-01-30T12:49:46;102721.38;;;12.22;100.00
65760;BME280;52496;51.082;5.066;2024-01-30T12:52:17;102725.16;;;12.01;100.00
65760;BME280;52496;51.082;5.066;2024-01-30T12:54:48;102728.59;;;11.93;100.00
65760;BME280;52496;51.082;5.066;2024-01-30T12:57:18;102732.81;;;11.96;100.00
65760;BME280;52496;51.082;5.066;2024-01-30T12:59:49;102732.13;;;12.22;100.00
65760;BME280;52496;51.082;5.066;2024-01-30T13:02:19;102724.88;;;12.50;100.00
65760;BME280;52496;51.082;5.066;2024-01-30T13:04:50;102732.13;;;12.67;100.00
65760;BME280;52496;51.082;5.066;2024-01-30T13:07:20;102725.00;;;12.58;100.00
65760;BME280;52496;51.082;5.066;2024-01-30T13:09:51;102726.50;;;12.43;100.00